Time;durP1;ratioP1;P1;durP2;ratioP2;P2;SDS_P1;SDS_P2;PMS_P1;PMS_P2;Temp;Humidity;BMP_temperature;BMP_pressure;BME280_temperature;BME280_humidity;BME280_pressure;Samples;Min_cycle;Max_cycle;Signal;HPM_P1;HPM_P2
2023/04/20 00:00:37;;;;;;;;;;;;;;;;;;5001340;28;6983;-95
2023/04/20 00:03:03;;;;;;;;;;;;;;;;;;5003723;28;7015;-95
2023/04/20 00:05:30;;;;;;;;;;;;;;;;;;5004625;28;7384;-93
2023/04/20 00:07:57;;;;;;;;;;;;;;;;;;5004579;28;7014;-93
2023/04/20 00:10:23;;;;;;;;;;;;;;;;;;5004347;28;7089;-94
2023/04/20 00:12:49;;;;;;;;;;;;;;;;;;5004907;28;7248;-93
2023/04/20 00:15:14;;;;;;;;;;;;;;;;;;5004404;28;7175;-93
2023/04/20 00:17:40;;;;;;;;;;;;;;;;;;5004698;28;8559;-94
2023/04/20 00:20:09;;;;;;;;;;;;;;;;;;5004545;28;7145;-94
2023/04/20 00:22:35;;;;;;;;;;;;;;;;;;5002136;28;7171;-93
2023/04/20 00:25:01;;;;;;;;;;;;;;;;;;5004023;28;6823;-93
2023/04/20 00:27:27;;;;;;;;;;;;;;;;;;5004246;28;6834;-94
2023/04/20 00:29:53;;;;;;;;;;;;;;;;;;5004258;28;7218;-93
2023/04/20 00:32:19;;;;;;;;;;;;;;;;;;5004456;28;7020;-93
2023/04/20 00:34:44;;;;;;;;;;;;;;;;;;5004163;28;7088;-92
2023/04/20 00:37:10;;;;;;;;;;;;;;;;;;5003933;28;7062;-93
2023/04/20 00:39:36;;;;;;;;;;;;;;;;;;5004340;28;8376;-93
2023/04/20 00:42:06;;;;;;;;;;;;;;;;;;5004535;28;7137;-93
2023/04/20 00:44:32;;;;;;;;;;;;;;;;;;5004245;28;8437;-93
2023/04/20 00:46:58;;;;;;;;;;;;;;;;;;5003985;28;6920;-92
2023/04/20 00:49:28;;;;;;;;;;;;;;;;;;5004377;28;7032;-92
2023/04/20 00:51:58;;;;;;;;;;;;;;;;;;5004138;28;7077;-93
2023/04/20 00:54:25;;;;;;;;;;;;;;;;;;5003917;28;7218;-94
2023/04/20 00:56:51;;;;;;;;;;;;;;;;;;5003606;28;7030;-93
2023/04/20 00:59:17;;;;;;;;;;;;;;;;;;5003740;28;9161;-94
2023/04/20 01:01:45;;;;;;;;;;;;;;;;;;5003780;28;7105;-93
2023/04/20 01:04:11;;;;;;;;;;;;;;;;;;5003846;28;7028;-95
2023/04/20 01:06:37;;;;;;;;;;;;;;;;;;5003904;28;8416;-94
2023/04/20 01:09:03;;;;;;;;;;;;;;;;;;5004248;28;7045;-93
2023/04/20 01:11:29;;;;;;;;;;;;;;;;;;5003953;28;6864;-94
2023/04/20 01:13:54;;;;;;;;;;;;;;;;;;5003314;28;7287;-94
2023/04/20 01:16:21;;;;;;;;;;;;;;;;;;5003723;28;8359;-93
2023/04/20 01:18:48;;;;;;;;;;;;;;;;;;5003506;28;7109;-93
2023/04/20 01:21:15;;;;;;;;;;;;;;;;;;5003612;28;8468;-93
2023/04/20 01:23:41;;;;;;;;;;;;;;;;;;5003860;28;8298;-94
2023/04/20 01:26:08;;;;;;;;;;;;;;;;;;5004061;28;7083;-95
2023/04/20 01:28:34;;;;;;;;;;;;;;;;;;5004027;28;8496;-93
2023/04/20 01:31:01;;;;;;;;;;;;;;;;;;5003873;28;7145;-94
2023/04/20 01:33:27;;;;;;;;;;;;;;;;;;5003554;28;7239;-93
2023/04/20 01:35:52;;;;;;;;;;;;;;;;;;5003422;28;8267;-94
2023/04/20 01:38:19;;;;;;;;;;;;;;;;;;5003680;28;8445;-93
2023/04/20 01:40:45;;;;;;;;;;;;;;;;;;5003373;28;7322;-94
2023/04/20 01:43:11;;;;;;;;;;;;;;;;;;5003587;28;7295;-94
2023/04/20 01:45:37;;;;;;;;;;;;;;;;;;5003333;28;8821;-94
2023/04/20 01:48:03;;;;;;;;;;;;;;;;;;5003004;28;7151;-96
2023/04/20 01:50:28;;;;;;;;;;;;;;;;;;5003343;28;8378;-94
2023/04/20 01:52:54;;;;;;;;;;;;;;;;;;5003035;28;7121;-94
2023/04/20 01:55:20;;;;;;;;;;;;;;;;;;5003347;28;7444;-94
2023/04/20 01:57:45;;;;;;;;;;;;;;;;;;5003442;28;7203;-93
2023/04/20 02:00:11;;;;;;;;;;;;;;;;;;5003232;28;8388;-94
2023/04/20 02:02:38;;;;;;;;;;;;;;;;;;5003127;28;7137;-93
2023/04/20 02:05:03;;;;;;;;;;;;;;;;;;5003265;28;8279;-93
2023/04/20 02:07:29;;;;;;;;;;;;;;;;;;5002898;28;7034;-92
2023/04/20 02:09:55;;;;;;;;;;;;;;;;;;5002967;28;7008;-93
2023/04/20 02:12:21;;;;;;;;;;;;;;;;;;5002803;28;8664;-93
2023/04/20 02:14:47;;;;;;;;;;;;;;;;;;5002393;28;8384;-95
2023/04/20 02:17:13;;;;;;;;;;;;;;;;;;5002696;28;6881;-92
2023/04/20 02:19:39;;;;;;;;;;;;;;;;;;5002940;28;7628;-94
2023/04/20 02:22:05;;;;;;;;;;;;;;;;;;5002394;28;6986;-93
2023/04/20 02:24:31;;;;;;;;;;;;;;;;;;5001997;28;6838;-91
2023/04/20 02:26:57;;;;;;;;;;;;;;;;;;5001290;28;7144;-95
2023/04/20 02:29:23;;;;;;;;;;;;;;;;;;5001850;28;7005;-93
2023/04/20 02:31:49;;;;;;;;;;;;;;;;;;5001771;28;7355;-93
2023/04/20 02:34:14;;;;;;;;;;;;;;;;;;5001943;28;7030;-93
2023/04/20 02:36:40;;;;;;;;;;;;;;;;;;5002507;28;7007;-95
2023/04/20 02:39:06;;;;;;;;;;;;;;;;;;5002264;28;8567;-94
2023/04/20 02:41:32;;;;;;;;;;;;;;;;;;5002117;28;8298;-92
2023/04/20 02:43:58;;;;;;;;;;;;;;;;;;5002279;28;6869;-93
2023/04/20 02:46:24;;;;;;;;;;;;;;;;;;5002127;28;7009;-93
2023/04/20 02:48:49;;;;;;;;;;;;;;;;;;5002594;28;7220;-94
2023/04/20 02:51:15;;;;;;;;;;;;;;;;;;5002262;28;6995;-93
2023/04/20 02:53:41;;;;;;;;;;;;;;;;;;5002161;28;8401;-94
2023/04/20 02:56:07;;;;;;;;;;;;;;;;;;5002393;28;6805;-94
2023/04/20 02:58:32;;;;;;;;;;;;;;;;;;5002153;28;7041;-94
2023/04/20 03:00:59;;;;;;;;;;;;;;;;;;5002141;28;7020;-95
2023/04/20 03:03:26;;;;;;;;;;;;;;;;;;5002381;28;7173;-95
2023/04/20 03:05:52;;;;;;;;;;;;;;;;;;5002072;28;7176;-95
2023/04/20 03:08:17;;;;;;;;;;;;;;;;;;5001877;28;8403;-95
2023/04/20 03:10:43;;;;;;;;;;;;;;;;;;5001789;28;7193;-95
2023/04/20 03:13:09;;;;;;;;;;;;;;;;;;5001494;28;7405;-95
2023/04/20 03:15:35;;;;;;;;;;;;;;;;;;5001564;28;7015;-94
2023/04/20 03:18:00;;;;;;;;;;;;;;;;;;5001706;28;7112;-93
2023/04/20 03:20:26;;;;;;;;;;;;;;;;;;5001700;28;7080;-95
2023/04/20 03:22:52;;;;;;;;;;;;;;;;;;5002222;28;8438;-95
2023/04/20 03:25:18;;;;;;;;;;;;;;;;;;5001653;28;7213;-94
2023/04/20 03:27:47;;;;;;;;;;;;;;;;;;5001686;28;6978;-93
2023/04/20 03:30:14;;;;;;;;;;;;;;;;;;5001479;28;8279;-95
2023/04/20 03:32:40;;;;;;;;;;;;;;;;;;5001493;28;7032;-94
2023/04/20 03:35:08;;;;;;;;;;;;;;;;;;5001607;28;7100;-93
2023/04/20 03:37:35;;;;;;;;;;;;;;;;;;5004350;28;6984;-95
2023/04/20 03:40:00;;;;;;;;;;;;;;;;;;5008262;28;8780;-93
2023/04/20 03:42:26;;;;;;;;;;;;;;;;;;5008028;28;7056;-93
2023/04/20 03:44:52;;;;;;;;;;;;;;;;;;5008184;28;8553;-93
2023/04/20 03:47:18;;;;;;;;;;;;;;;;;;5007761;28;7060;-92
2023/04/20 03:49:43;;;;;;;;;;;;;;;;;;5008024;28;6987;-94
2023/04/20 03:52:09;;;;;;;;;;;;;;;;;;5007715;28;7132;-94
2023/04/20 03:54:36;;;;;;;;;;;;;;;;;;4992926;28;7006;-94
2023/04/20 03:57:02;;;;;;;;;;;;;;;;;;5007796;28;7141;-94
2023/04/20 03:59:28;;;;;;;;;;;;;;;;;;5007438;28;7249;-93
2023/04/20 04:01:53;;;;;;;;;;;;;;;;;;5007774;28;7130;-93
2023/04/20 04:04:19;;;;;;;;;;;;;;;;;;5008098;28;7147;-94
2023/04/20 04:06:45;;;;;;;;;;;;;;;;;;5008086;28;7014;-93
2023/04/20 04:09:10;;;;;;;;;;;;;;;;;;5007781;28;6819;-93
2023/04/20 04:11:36;;;;;;;;;;;;;;;;;;5008229;28;6812;-92
2023/04/20 04:14:04;;;;;;;;;;;;;;;;;;5007782;28;7029;-93
2023/04/20 04:16:30;;;;;;;;;;;;;;;;;;5007793;28;7264;-94
2023/04/20 04:18:56;;;;;;;;;;;;;;;;;;5007920;28;7102;-92
2023/04/20 04:21:21;;;;;;;;;;;;;;;;;;5007517;28;7141;-94
2023/04/20 04:23:48;;;;;;;;;;;;;;;;;;5007995;28;7146;-94
2023/04/20 04:26:13;;;;;;;;;;;;;;;;;;5007638;28;6824;-93
2023/04/20 04:28:39;;;;;;;;;;;;;;;;;;5007941;28;8565;-92
2023/04/20 04:31:05;;;;;;;;;;;;;;;;;;5007826;28;7169;-92
2023/04/20 04:33:34;;;;;;;;;;;;;;;;;;5007525;28;6994;-93
2023/04/20 04:36:00;;;;;;;;;;;;;;;;;;5007573;28;8624;-93
2023/04/20 04:38:26;;;;;;;;;;;;;;;;;;5007783;28;8413;-95
2023/04/20 04:40:52;;;;;;;;;;;;;;;;;;5007169;28;7060;-93
2023/04/20 04:43:18;;;;;;;;;;;;;;;;;;5008317;28;7133;-94
2023/04/20 04:45:44;;;;;;;;;;;;;;;;;;5007375;28;6969;-94
2023/04/20 04:48:11;;;;;;;;;;;;;;;;;;5007164;28;8438;-93
2023/04/20 04:50:39;;;;;;;;;;;;;;;;;;5003037;28;7109;-94
2023/04/20 04:53:04;;;;;;;;;;;;;;;;;;5003921;28;7031;-93
2023/04/20 04:55:30;;;;;;;;;;;;;;;;;;5004172;28;8414;-92
2023/04/20 04:57:56;;;;;;;;;;;;;;;;;;5003673;28;6968;-93
2023/04/20 05:00:22;;;;;;;;;;;;;;;;;;5003459;28;7162;-93
2023/04/20 05:02:48;;;;;;;;;;;;;;;;;;5004095;28;7043;-93
2023/04/20 05:05:14;;;;;;;;;;;;;;;;;;5003600;28;7648;-92
2023/04/20 05:07:40;;;;;;;;;;;;;;;;;;5003796;28;7245;-93
2023/04/20 05:10:06;;;;;;;;;;;;;;;;;;5003498;28;7027;-93
2023/04/20 05:12:32;;;;;;;;;;;;;;;;;;5003602;28;6832;-94
2023/04/20 05:14:58;;;;;;;;;;;;;;;;;;5003261;28;7158;-93
2023/04/20 05:17:24;;;;;;;;;;;;;;;;;;5003824;28;6977;-92
2023/04/20 05:19:50;;;;;;;;;;;;;;;;;;5003405;28;7030;-94
2023/04/20 05:22:16;;;;;;;;;;;;;;;;;;5003146;28;8658;-94
2023/04/20 05:24:41;;;;;;;;;;;;;;;;;;5003347;28;7225;-92
2023/04/20 05:27:08;;;;;;;;;;;;;;;;;;5003402;28;7096;-92
2023/04/20 05:29:34;;;;;;;;;;;;;;;;;;5003520;28;7381;-93
2023/04/20 05:31:59;;;;;;;;;;;;;;;;;;5003480;28;8380;-94
2023/04/20 05:34:25;;;;;;;;;;;;;;;;;;5003240;28;7126;-95
2023/04/20 05:36:51;;;;;;;;;;;;;;;;;;5003316;28;8386;-94
2023/04/20 05:39:17;;;;;;;;;;;;;;;;;;5003502;28;6984;-94
2023/04/20 05:41:43;;;;;;;;;;;;;;;;;;5003058;28;6995;-94
2023/04/20 05:44:09;;;;;;;;;;;;;;;;;;5003068;28;8322;-93
2023/04/20 05:46:35;;;;;;;;;;;;;;;;;;5002824;28;6807;-93
2023/04/20 05:49:00;;;;;;;;;;;;;;;;;;5002960;28;7212;-93
2023/04/20 05:51:29;;;;;;;;;;;;;;;;;;5003085;28;8421;-93
2023/04/20 05:53:54;;;;;;;;;;;;;;;;;;5002889;28;7130;-92
2023/04/20 05:56:20;;;;;;;;;;;;;;;;;;5003872;28;8365;-94
2023/04/20 05:58:47;;;;;;;;;;;;;;;;;;5003396;28;8378;-94
2023/04/20 06:01:16;;;;;;;;;;;;;;;;;;5013587;28;6919;-92
2023/04/20 06:03:42;;;;;;;;;;;;;;;;;;5014712;28;6838;-94
2023/04/20 06:06:07;;;;;;;;;;;;;;;;;;5014752;28;8378;-94
2023/04/20 06:08:33;;;;;;;;;;;;;;;;;;5014165;28;6967;-93
2023/04/20 06:10:59;;;;;;;;;;;;;;;;;;5014608;28;7397;-93
2023/04/20 06:13:25;;;;;;;;;;;;;;;;;;5015348;28;7042;-95
2023/04/20 06:15:51;;;;;;;;;;;;;;;;;;5014203;28;7195;-95
2023/04/20 06:18:17;;;;;;;;;;;;;;;;;;5013937;28;7049;-94
2023/04/20 06:20:43;;;;;;;;;;;;;;;;;;5013876;28;8462;-94
2023/04/20 06:23:08;;;;;;;;;;;;;;;;;;5006466;28;7010;-93
2023/04/20 06:25:38;;;;;;;;;;;;;;;;;;5002636;28;7009;-94
2023/04/20 06:28:05;;;;;;;;;;;;;;;;;;5002468;28;7096;-94
2023/04/20 06:30:32;;;;;;;;;;;;;;;;;;4994589;28;8811;-93
2023/04/20 06:33:02;;;;;;;;;;;;;;;;;;4986633;28;7177;-93
2023/04/20 06:35:27;;;;;;;;;;;;;;;;;;5003055;28;7178;-93
2023/04/20 06:37:56;;;;;;;;;;;;;;;;;;5002984;28;8576;-94
2023/04/20 06:40:22;;;;;;;;;;;;;;;;;;4987385;28;6882;-94
2023/04/20 06:42:48;;;;;;;;;;;;;;;;;;5002506;28;6834;-95
2023/04/20 06:45:14;;;;;;;;;;;;;;;;;;5002561;28;7009;-94
2023/04/20 06:47:40;;;;;;;;;;;;;;;;;;5002402;28;6819;-93
2023/04/20 06:50:09;;;;;;;;;;;;;;;;;;5003485;28;6854;-94
2023/04/20 06:52:41;;;;;;;;;;;;;;;;;;5002979;28;8419;-95
2023/04/20 06:55:07;;;;;;;;;;;;;;;;;;5002511;28;7239;-94
2023/04/20 06:57:34;;;;;;;;;;;;;;;;;;4995157;28;7145;-94
2023/04/20 07:00:00;;;;;;;;;;;;;;;;;;4982918;28;6992;-94
2023/04/20 07:02:26;;;;;;;;;;;;;;;;;;4988554;28;6818;-94
2023/04/20 07:04:51;;;;;;;;;;;;;;;;;;4982481;28;7038;-94
2023/04/20 07:07:17;;;;;;;;;;;;;;;;;;4982679;28;7224;-93
2023/04/20 07:09:43;;;;;;;;;;;;;;;;;;4982288;28;7011;-94
2023/04/20 07:12:14;;;;;;;;;;;;;;;;;;5001560;28;9207;-95
2023/04/20 07:14:40;;;;;;;;;;;;;;;;;;5001686;28;6835;-93
2023/04/20 07:17:05;;;;;;;;;;;;;;;;;;5001799;28;7351;-93
2023/04/20 07:19:31;;;;;;;;;;;;;;;;;;5001325;28;8570;-93
2023/04/20 07:21:57;;;;;;;;;;;;;;;;;;4984172;28;7108;-94
2023/04/20 07:24:22;;;;;;;;;;;;;;;;;;4985530;28;7016;-93
2023/04/20 07:26:48;;;;;;;;;;;;;;;;;;4984344;28;8554;-94
2023/04/20 07:29:14;;;;;;;;;;;;;;;;;;4985288;28;7085;-95
2023/04/20 07:31:40;;;;;;;;;;;;;;;;;;5001561;28;7226;-93
2023/04/20 07:34:06;;;;;;;;;;;;;;;;;;5001734;28;7084;-95
2023/04/20 07:36:32;;;;;;;;;;;;;;;;;;5001869;28;8487;-95
2023/04/20 07:38:57;;;;;;;;;;;;;;;;;;5002031;28;7031;-95
2023/04/20 07:41:23;;;;;;;;;;;;;;;;;;5001446;28;7107;-93
2023/04/20 07:43:49;;;;;;;;;;;;;;;;;;4998400;28;7190;-94
2023/04/20 07:46:21;;;;;;;;;;;;;;;;;;4982284;28;6798;-94
2023/04/20 07:48:47;;;;;;;;;;;;;;;;;;4966096;28;8662;-94
2023/04/20 07:51:13;;;;;;;;;;;;;;;;;;4982507;28;7145;-94
2023/04/20 07:53:38;;;;;;;;;;;;;;;;;;4982347;28;8593;-94
2023/04/20 07:56:04;;;;;;;;;;;;;;;;;;4982094;28;7063;-95
2023/04/20 07:58:30;;;;;;;;;;;;;;;;;;4981714;28;6826;-94
2023/04/20 08:00:56;;;;;;;;;;;;;;;;;;4982249;28;7022;-93
2023/04/20 08:03:21;;;;;;;;;;;;;;;;;;4982148;28;8468;-94
2023/04/20 08:05:47;;;;;;;;;;;;;;;;;;4981989;28;6887;-96
2023/04/20 08:08:13;;;;;;;;;;;;;;;;;;4984970;28;8269;-95
2023/04/20 08:10:38;;;;;;;;;;;;;;;;;;4984787;28;8788;-96
2023/04/20 08:13:04;;;;;;;;;;;;;;;;;;4985265;28;7131;-94
2023/04/20 08:15:30;;;;;;;;;;;;;;;;;;4984828;28;6999;-95
2023/04/20 08:17:55;;;;;;;;;;;;;;;;;;4981564;28;8589;-93
2023/04/20 08:20:21;;;;;;;;;;;;;;;;;;4983132;28;7212;-95
2023/04/20 08:22:48;;;;;;;;;;;;;;;;;;5001378;28;8406;-94
2023/04/20 08:25:13;;;;;;;;;;;;;;;;;;5003572;28;7258;-96
2023/04/20 08:27:39;;;;;;;;;;;;;;;;;;5004917;28;7013;-93
2023/04/20 08:30:05;;;;;;;;;;;;;;;;;;5004794;28;8643;-94
2023/04/20 08:32:31;;;;;;;;;;;;;;;;;;5005247;28;7018;-95
2023/04/20 08:34:56;;;;;;;;;;;;;;;;;;5008955;28;8730;-95
2023/04/20 08:37:22;;;;;;;;;;;;;;;;;;5005375;28;6981;-95
2023/04/20 08:39:48;;;;;;;;;;;;;;;;;;5001680;28;8483;-94
2023/04/20 08:42:15;;;;;;;;;;;;;;;;;;4988140;28;7028;-94
2023/04/20 08:44:41;;;;;;;;;;;;;;;;;;5004992;28;8806;-94
2023/04/20 08:47:08;;;;;;;;;;;;;;;;;;5002644;28;8501;-95
2023/04/20 08:49:35;;;;;;;;;;;;;;;;;;4987329;28;7059;-95
2023/04/20 08:52:00;;;;;;;;;;;;;;;;;;5004570;28;7144;-94
2023/04/20 08:54:26;;;;;;;;;;;;;;;;;;5004982;28;7311;-95
2023/04/20 08:56:51;;;;;;;;;;;;;;;;;;5005488;28;6906;-94
2023/04/20 08:59:17;;;;;;;;;;;;;;;;;;5005440;28;7184;-95
2023/04/20 09:01:43;;;;;;;;;;;;;;;;;;5005022;28;7528;-96
2023/04/20 09:04:17;;;;;;;;;;;;;;;;;;5004751;28;7004;-94
2023/04/20 09:06:44;;;;;;;;;;;;;;;;;;4989485;28;8291;-95
2023/04/20 09:09:28;;;;;;;;;;;;;;;;;;5005224;28;7176;-94
2023/04/20 09:12:28;;;;;;;;;;;;;;;;;;5003059;28;6850;-91
2023/04/20 09:14:56;;;;;;;;;;;;;;;;;;5004166;28;7041;-92
2023/04/20 09:17:35;;;;;;;;;;;;;;;;;;4987907;28;8732;-93
2023/04/20 09:20:01;;;;;;;;;;;;;;;;;;4987760;28;7083;-93
2023/04/20 09:22:31;;;;;;;;;;;;;;;;;;4987626;28;6976;-93
2023/04/20 09:24:57;;;;;;;;;;;;;;;;;;4984125;28;8495;-92
2023/04/20 09:27:25;;;;;;;;;;;;;;;;;;4984164;28;7210;-94
2023/04/20 09:29:57;;;;;;;;;;;;;;;;;;4984179;28;7136;-92
2023/04/20 09:32:24;;;;;;;;;;;;;;;;;;4984656;28;6842;-92
2023/04/20 09:34:50;;;;;;;;;;;;;;;;;;4983894;28;7034;-94
2023/04/20 09:37:16;;;;;;;;;;;;;;;;;;4984366;28;8424;-93
2023/04/20 09:39:43;;;;;;;;;;;;;;;;;;4984501;28;6849;-92
2023/04/20 09:42:11;;;;;;;;;;;;;;;;;;4984326;28;7046;-94
2023/04/20 09:44:38;;;;;;;;;;;;;;;;;;4984304;28;7195;-93
2023/04/20 09:47:04;;;;;;;;;;;;;;;;;;4984121;28;7148;-92
2023/04/20 09:49:31;;;;;;;;;;;;;;;;;;4984641;28;7410;-92
2023/04/20 09:52:00;;;;;;;;;;;;;;;;;;4984244;28;7008;-94
2023/04/20 09:54:28;;;;;;;;;;;;;;;;;;4984153;28;7015;-95
2023/04/20 09:56:54;;;;;;;;;;;;;;;;;;4984356;28;7023;-93
2023/04/20 09:59:20;;;;;;;;;;;;;;;;;;4983865;28;8477;-94
2023/04/20 10:01:46;;;;;;;;;;;;;;;;;;4983797;28;8372;-94
2023/04/20 10:04:13;;;;;;;;;;;;;;;;;;4984419;28;8420;-95
2023/04/20 10:06:50;;;;;;;;;;;;;;;;;;5009118;28;6824;-95
2023/04/20 10:09:21;;;;;;;;;;;;;;;;;;5009789;28;7220;-94
2023/04/20 10:11:47;;;;;;;;;;;;;;;;;;5000882;28;7180;-94
2023/04/20 10:14:23;;;;;;;;;;;;;;;;;;4986054;28;7143;-93
2023/04/20 10:16:58;;;;;;;;;;;;;;;;;;4987658;28;8613;-94
2023/04/20 10:19:35;;;;;;;;;;;;;;;;;;5003240;28;8867;-95
2023/04/20 10:22:01;;;;;;;;;;;;;;;;;;4987046;28;7094;-95
2023/04/20 10:24:30;;;;;;;;;;;;;;;;;;4986749;28;6830;-93
2023/04/20 10:26:56;;;;;;;;;;;;;;;;;;4986720;28;7175;-95
2023/04/20 10:29:24;;;;;;;;;;;;;;;;;;4986365;28;7171;-96
2023/04/20 10:31:50;;;;;;;;;;;;;;;;;;4986534;28;8476;-95
2023/04/20 10:34:18;;;;;;;;;;;;;;;;;;4987786;28;7046;-92
2023/04/20 10:36:43;;;;;;;;;;;;;;;;;;4986335;28;7046;-93
2023/04/20 10:39:16;;;;;;;;;;;;;;;;;;4986309;28;8344;-93
2023/04/20 10:41:53;;;;;;;;;;;;;;;;;;4986373;28;6900;-92
2023/04/20 10:44:19;;;;;;;;;;;;;;;;;;4986351;28;8507;-95
2023/04/20 10:46:49;;;;;;;;;;;;;;;;;;4985683;28;8384;-94
2023/04/20 10:49:15;;;;;;;;;;;;;;;;;;4986489;28;6829;-95
2023/04/20 10:51:48;;;;;;;;;;;;;;;;;;4986620;28;6831;-94
2023/04/20 10:54:14;;;;;;;;;;;;;;;;;;4985938;28;6901;-94
2023/04/20 10:56:41;;;;;;;;;;;;;;;;;;4986542;28;7178;-94
2023/04/20 10:59:08;;;;;;;;;;;;;;;;;;4985941;28;8511;-94
2023/04/20 11:01:34;;;;;;;;;;;;;;;;;;4985993;28;7195;-94
2023/04/20 11:04:00;;;;;;;;;;;;;;;;;;4985927;28;8286;-93
2023/04/20 11:06:27;;;;;;;;;;;;;;;;;;4985995;28;7253;-93
2023/04/20 11:08:53;;;;;;;;;;;;;;;;;;4985827;28;7039;-94
2023/04/20 11:11:20;;;;;;;;;;;;;;;;;;4986445;28;8292;-93
2023/04/20 11:13:47;;;;;;;;;;;;;;;;;;4985833;28;6989;-93
2023/04/20 11:16:13;;;;;;;;;;;;;;;;;;5001493;28;8440;-93
2023/04/20 11:18:52;;;;;;;;;;;;;;;;;;5002022;28;8375;-92
2023/04/20 11:21:19;;;;;;;;;;;;;;;;;;5002131;28;7051;-94
2023/04/20 11:23:45;;;;;;;;;;;;;;;;;;5002126;28;7233;-93
2023/04/20 11:26:11;;;;;;;;;;;;;;;;;;5002087;28;8434;-93
2023/04/20 11:28:37;;;;;;;;;;;;;;;;;;5002033;28;7220;-93
2023/04/20 11:31:03;;;;;;;;;;;;;;;;;;5001792;28;7069;-95
2023/04/20 11:33:29;;;;;;;;;;;;;;;;;;5002018;28;7022;-94
2023/04/20 11:35:58;;;;;;;;;;;;;;;;;;4998439;28;6821;-95
2023/04/20 11:38:28;;;;;;;;;;;;;;;;;;5016684;28;6982;-94
2023/04/20 11:40:54;;;;;;;;;;;;;;;;;;5001749;28;8388;-94
2023/04/20 11:43:20;;;;;;;;;;;;;;;;;;5001301;28;6994;-94
2023/04/20 11:45:46;;;;;;;;;;;;;;;;;;4985538;28;6908;-94
2023/04/20 11:48:12;;;;;;;;;;;;;;;;;;4999753;28;6838;-94
2023/04/20 11:50:38;;;;;;;;;;;;;;;;;;5001349;28;7191;-95
2023/04/20 11:53:05;;;;;;;;;;;;;;;;;;4985685;28;7170;-95
2023/04/20 11:55:30;;;;;;;;;;;;;;;;;;5001768;28;7075;-94
2023/04/20 11:57:56;;;;;;;;;;;;;;;;;;4998923;28;7029;-94
2023/04/20 12:00:22;;;;;;;;;;;;;;;;;;5005483;28;7309;-94
2023/04/20 12:02:47;;;;;;;;;;;;;;;;;;5005778;28;8447;-96
2023/04/20 12:05:13;;;;;;;;;;;;;;;;;;5005001;28;6834;-96
2023/04/20 12:07:39;;;;;;;;;;;;;;;;;;5005168;28;7078;-96
2023/04/20 12:10:06;;;;;;;;;;;;;;;;;;4999038;28;7078;-94
2023/04/20 12:12:32;;;;;;;;;;;;;;;;;;4980735;28;7025;-94
2023/04/20 12:14:58;;;;;;;;;;;;;;;;;;4987966;28;8439;-95
2023/04/20 12:17:24;;;;;;;;;;;;;;;;;;4985820;28;7306;-94
2023/04/20 12:19:49;;;;;;;;;;;;;;;;;;5005073;28;8405;-93
2023/04/20 12:22:15;;;;;;;;;;;;;;;;;;5005145;28;8347;-94
2023/04/20 12:24:41;;;;;;;;;;;;;;;;;;5004867;28;7006;-95
2023/04/20 12:27:07;;;;;;;;;;;;;;;;;;5001749;28;8289;-93
2023/04/20 12:29:32;;;;;;;;;;;;;;;;;;4985404;28;7020;-93
2023/04/20 12:31:58;;;;;;;;;;;;;;;;;;4993233;28;7003;-93
2023/04/20 12:34:25;;;;;;;;;;;;;;;;;;4989087;28;7049;-93
2023/04/20 12:36:51;;;;;;;;;;;;;;;;;;4988681;28;9055;-95
2023/04/20 12:39:16;;;;;;;;;;;;;;;;;;4989037;28;7637;-94
2023/04/20 12:41:42;;;;;;;;;;;;;;;;;;4988762;28;8476;-94
2023/04/20 12:44:09;;;;;;;;;;;;;;;;;;4988337;28;7456;-93
2023/04/20 12:46:35;;;;;;;;;;;;;;;;;;4988842;28;7079;-93
2023/04/20 12:49:00;;;;;;;;;;;;;;;;;;4988616;28;7480;-94
2023/04/20 12:51:27;;;;;;;;;;;;;;;;;;4988382;28;7145;-96
2023/04/20 12:53:52;;;;;;;;;;;;;;;;;;4987106;28;7168;-93
2023/04/20 12:56:18;;;;;;;;;;;;;;;;;;4987366;28;7321;-95
2023/04/20 12:58:44;;;;;;;;;;;;;;;;;;4987436;28;6875;-95
2023/04/20 13:01:09;;;;;;;;;;;;;;;;;;4988550;28;7144;-94
2023/04/20 13:03:35;;;;;;;;;;;;;;;;;;5002734;28;8662;-93
2023/04/20 13:06:01;;;;;;;;;;;;;;;;;;5003695;28;7367;-94
2023/04/20 13:08:26;;;;;;;;;;;;;;;;;;5003732;28;6834;-92
2023/04/20 13:10:52;;;;;;;;;;;;;;;;;;5002013;28;7022;-93
2023/04/20 13:13:18;;;;;;;;;;;;;;;;;;4985913;28;7204;-94
2023/04/20 13:15:43;;;;;;;;;;;;;;;;;;5001827;28;7089;-94
2023/04/20 13:18:09;;;;;;;;;;;;;;;;;;5001865;28;8461;-94
2023/04/20 13:20:35;;;;;;;;;;;;;;;;;;4990111;28;7238;-93
2023/04/20 13:23:01;;;;;;;;;;;;;;;;;;4980697;28;7023;-94
2023/04/20 13:25:32;;;;;;;;;;;;;;;;;;5004285;28;8409;-93
2023/04/20 13:27:58;;;;;;;;;;;;;;;;;;5003991;28;7464;-93
2023/04/20 13:30:24;;;;;;;;;;;;;;;;;;5004307;28;8802;-92
2023/04/20 13:32:50;;;;;;;;;;;;;;;;;;4995737;28;8287;-94
2023/04/20 13:35:16;;;;;;;;;;;;;;;;;;5004799;28;8958;-94
2023/04/20 13:37:43;;;;;;;;;;;;;;;;;;5011849;28;8445;-93
2023/04/20 13:40:10;;;;;;;;;;;;;;;;;;5014997;28;7391;-93
2023/04/20 13:42:35;;;;;;;;;;;;;;;;;;5014843;28;8280;-94
2023/04/20 13:45:02;;;;;;;;;;;;;;;;;;5014808;28;7081;-94
2023/04/20 13:47:28;;;;;;;;;;;;;;;;;;5015150;28;7019;-96
2023/04/20 13:49:53;;;;;;;;;;;;;;;;;;5014795;28;6976;-95
2023/04/20 13:52:19;;;;;;;;;;;;;;;;;;5014348;28;6964;-93
2023/04/20 13:54:45;;;;;;;;;;;;;;;;;;5015078;28;6892;-95
2023/04/20 13:57:10;;;;;;;;;;;;;;;;;;5014949;28;7110;-95
2023/04/20 13:59:36;;;;;;;;;;;;;;;;;;5014990;28;6801;-95
2023/04/20 14:02:02;;;;;;;;;;;;;;;;;;5008562;28;8309;-93
2023/04/20 14:04:28;;;;;;;;;;;;;;;;;;5003708;28;7187;-93
2023/04/20 14:06:53;;;;;;;;;;;;;;;;;;4987994;28;6975;-93
2023/04/20 14:09:20;;;;;;;;;;;;;;;;;;5003737;28;6828;-93
2023/04/20 14:11:45;;;;;;;;;;;;;;;;;;5003212;28;7061;-92
2023/04/20 14:14:11;;;;;;;;;;;;;;;;;;5002996;28;7026;-94
2023/04/20 14:16:44;;;;;;;;;;;;;;;;;;5002062;28;7231;-93
2023/04/20 14:19:10;;;;;;;;;;;;;;;;;;5002466;28;7259;-93
2023/04/20 14:21:36;;;;;;;;;;;;;;;;;;5002996;28;8287;-93
2023/04/20 14:24:02;;;;;;;;;;;;;;;;;;5003282;28;6818;-94
2023/04/20 14:26:27;;;;;;;;;;;;;;;;;;5002822;28;7318;-94
2023/04/20 14:28:53;;;;;;;;;;;;;;;;;;5002860;28;7073;-94
2023/04/20 14:31:19;;;;;;;;;;;;;;;;;;5000392;28;7063;-95
2023/04/20 14:33:45;;;;;;;;;;;;;;;;;;4985946;28;8564;-93
2023/04/20 14:36:11;;;;;;;;;;;;;;;;;;4986145;28;8429;-94
2023/04/20 14:38:37;;;;;;;;;;;;;;;;;;4986036;28;8625;-92
2023/04/20 14:41:06;;;;;;;;;;;;;;;;;;4985918;28;7012;-94
2023/04/20 14:43:33;;;;;;;;;;;;;;;;;;4986469;28;7319;-92
2023/04/20 14:45:59;;;;;;;;;;;;;;;;;;4985956;28;8394;-95
2023/04/20 14:48:25;;;;;;;;;;;;;;;;;;4986354;28;7053;-95
2023/04/20 14:50:52;;;;;;;;;;;;;;;;;;4986362;28;6836;-94
2023/04/20 14:53:18;;;;;;;;;;;;;;;;;;5002321;28;7048;-95
2023/04/20 14:55:43;;;;;;;;;;;;;;;;;;5005996;28;7157;-96
2023/04/20 14:58:09;;;;;;;;;;;;;;;;;;5004183;28;6828;-95
2023/04/20 15:00:35;;;;;;;;;;;;;;;;;;4987250;28;6822;-96
2023/04/20 15:03:01;;;;;;;;;;;;;;;;;;5002339;28;8706;-95
2023/04/20 15:05:27;;;;;;;;;;;;;;;;;;5003430;28;7071;-95
2023/04/20 15:07:53;;;;;;;;;;;;;;;;;;4999933;28;7018;-95
2023/04/20 15:10:19;;;;;;;;;;;;;;;;;;4982734;28;7015;-94
2023/04/20 15:12:46;;;;;;;;;;;;;;;;;;4983251;28;6826;-94
2023/04/20 15:15:13;;;;;;;;;;;;;;;;;;4982607;28;7125;-96
2023/04/20 15:17:38;;;;;;;;;;;;;;;;;;4982606;28;8303;-95
2023/04/20 15:20:04;;;;;;;;;;;;;;;;;;4982462;28;8286;-96
2023/04/20 15:22:30;;;;;;;;;;;;;;;;;;4982573;28;7221;-94
2023/04/20 15:24:56;;;;;;;;;;;;;;;;;;4999933;28;6834;-95
2023/04/20 15:27:21;;;;;;;;;;;;;;;;;;5003304;28;8290;-96
2023/04/20 15:29:47;;;;;;;;;;;;;;;;;;5001347;28;6995;-96
2023/04/20 15:32:13;;;;;;;;;;;;;;;;;;4985165;28;6855;-94
2023/04/20 15:34:39;;;;;;;;;;;;;;;;;;4998194;28;7073;-96
2023/04/20 15:37:04;;;;;;;;;;;;;;;;;;4991869;28;8291;-95
2023/04/20 15:39:30;;;;;;;;;;;;;;;;;;5002210;28;8426;-95
2023/04/20 15:41:56;;;;;;;;;;;;;;;;;;4998579;28;7116;-94
2023/04/20 15:44:23;;;;;;;;;;;;;;;;;;4983186;28;6875;-95
2023/04/20 15:46:49;;;;;;;;;;;;;;;;;;5000216;28;6915;-94
2023/04/20 15:49:15;;;;;;;;;;;;;;;;;;5003018;28;6856;-95
2023/04/20 15:51:43;;;;;;;;;;;;;;;;;;5002432;28;6980;-94
2023/04/20 15:54:09;;;;;;;;;;;;;;;;;;5001944;28;8402;-94
2023/04/20 15:56:35;;;;;;;;;;;;;;;;;;4998481;28;7010;-95
2023/04/20 15:59:00;;;;;;;;;;;;;;;;;;4982304;28;7399;-95
2023/04/20 16:01:29;;;;;;;;;;;;;;;;;;4981982;28;6827;-95
2023/04/20 16:03:54;;;;;;;;;;;;;;;;;;4982795;28;7283;-95
2023/04/20 16:06:20;;;;;;;;;;;;;;;;;;4982567;28;7158;-95
2023/04/20 16:08:48;;;;;;;;;;;;;;;;;;4985671;28;6980;-95
2023/04/20 16:11:14;;;;;;;;;;;;;;;;;;4985632;28;7019;-96
2023/04/20 16:13:40;;;;;;;;;;;;;;;;;;5001364;28;7041;-95
2023/04/20 16:16:05;;;;;;;;;;;;;;;;;;5002823;28;7029;-95
2023/04/20 16:18:31;;;;;;;;;;;;;;;;;;5001758;28;8373;-95
2023/04/20 16:20:58;;;;;;;;;;;;;;;;;;5002424;28;7375;-95
2023/04/20 16:23:23;;;;;;;;;;;;;;;;;;4987111;28;7050;-94
2023/04/20 16:25:50;;;;;;;;;;;;;;;;;;4985243;28;7521;-94
2023/04/20 16:28:15;;;;;;;;;;;;;;;;;;4985824;28;7232;-94
2023/04/20 16:30:41;;;;;;;;;;;;;;;;;;4982035;28;6987;-95
2023/04/20 16:33:07;;;;;;;;;;;;;;;;;;4981985;28;7184;-95
2023/04/20 16:35:36;;;;;;;;;;;;;;;;;;4973632;28;6863;-95
2023/04/20 16:38:02;;;;;;;;;;;;;;;;;;4985348;28;6856;-95
2023/04/20 16:40:28;;;;;;;;;;;;;;;;;;4985127;28;7224;-96
2023/04/20 16:42:54;;;;;;;;;;;;;;;;;;5001429;28;7001;-95
2023/04/20 16:45:20;;;;;;;;;;;;;;;;;;5001911;28;6815;-95
2023/04/20 16:47:45;;;;;;;;;;;;;;;;;;5005080;28;7229;-95
2023/04/20 16:50:17;;;;;;;;;;;;;;;;;;4999008;28;7249;-95
2023/04/20 16:52:44;;;;;;;;;;;;;;;;;;4985235;28;8494;-95
2023/04/20 16:55:09;;;;;;;;;;;;;;;;;;4984973;28;7030;-94
2023/04/20 16:57:35;;;;;;;;;;;;;;;;;;4991965;28;7070;-96